createdAt,value
2023-02-19T00:01:42.870Z,72.23
2023-02-19T00:04:18.150Z,71.97
2023-02-19T00:06:52.860Z,71.89
2023-02-19T00:09:27.305Z,71.72
2023-02-19T00:12:01.362Z,71.63
2023-02-19T00:14:34.835Z,71.40
2023-02-19T00:17:08.525Z,71.38
2023-02-19T00:19:42.331Z,71.15
2023-02-19T00:22:16.071Z,71.15
2023-02-19T00:24:49.667Z,71.08
2023-02-19T00:27:23.181Z,70.97
2023-02-19T00:29:57.221Z,70.97
2023-02-19T00:32:30.461Z,70.86
2023-02-19T00:35:04.703Z,70.91
2023-02-19T00:37:38.226Z,71.01
2023-02-19T00:40:13.359Z,71.03
2023-02-19T00:42:47.449Z,71.05
2023-02-19T00:45:23.011Z,71.09
2023-02-19T00:47:56.566Z,71.20
2023-02-19T00:50:30.874Z,71.08
2023-02-19T00:53:04.882Z,70.77
2023-02-19T00:55:38.388Z,70.66
2023-02-19T00:58:12.344Z,70.69
2023-02-19T01:00:46.047Z,70.66
2023-02-19T01:03:20.067Z,70.56
2023-02-19T01:05:54.907Z,70.37
2023-02-19T01:08:29.256Z,70.06
2023-02-19T01:11:03.710Z,69.89
2023-02-19T01:13:54.771Z,69.95
2023-02-19T01:16:29.144Z,69.92
2023-02-19T01:19:02.800Z,69.86
2023-02-19T01:21:36.332Z,69.98
2023-02-19T01:24:10.530Z,69.91
2023-02-19T01:26:45.148Z,69.68
2023-02-19T01:29:18.735Z,69.71
2023-02-19T01:31:52.305Z,69.86
2023-02-19T01:34:27.418Z,69.81
2023-02-19T01:37:01.057Z,69.85
2023-02-19T01:39:34.952Z,69.93
2023-02-19T01:42:14.331Z,69.90
2023-02-19T01:45:20.897Z,69.60
2023-02-19T01:48:06.447Z,69.39
2023-02-19T01:50:46.231Z,69.29
2023-02-19T01:53:23.928Z,69.17
2023-02-19T01:56:01.112Z,69.18
2023-02-19T01:58:38.476Z,69.29
2023-02-19T02:01:13.392Z,69.00
2023-02-19T02:03:50.862Z,69.13
2023-02-19T02:06:28.004Z,69.17
2023-02-19T02:09:21.637Z,69.29
2023-02-19T02:11:56.883Z,69.43
2023-02-19T02:14:35.258Z,69.47
2023-02-19T02:17:17.916Z,69.53
2023-02-19T02:20:15.630Z,69.67
2023-02-19T02:22:56.598Z,69.75
2023-02-19T02:25:57.932Z,69.85
2023-02-19T02:28:51.431Z,69.97
2023-02-19T02:31:30.690Z,70.04
2023-02-19T02:34:09.363Z,70.08
2023-02-19T02:36:46.082Z,70.18
2023-02-19T02:39:24.318Z,70.24
2023-02-19T02:42:19.253Z,70.35
2023-02-19T02:45:17.529Z,70.26
2023-02-19T02:47:56.307Z,70.38
2023-02-19T02:50:36.682Z,70.53
2023-02-19T02:53:33.639Z,70.58
2023-02-19T02:56:09.708Z,70.66
2023-02-19T02:58:43.959Z,70.86
2023-02-19T03:01:39.859Z,70.89
2023-02-19T03:04:17.436Z,70.90
2023-02-19T03:06:52.570Z,70.80
2023-02-19T03:09:34.265Z,70.81
2023-02-19T03:12:28.873Z,70.84
2023-02-19T03:15:37.631Z,71.04
2023-02-19T03:18:34.661Z,71.24
2023-02-19T03:21:11.208Z,71.13
2023-02-19T03:24:13.159Z,70.98
2023-02-19T03:26:54.360Z,70.73
2023-02-19T03:29:33.405Z,70.76
2023-02-19T03:32:14.501Z,70.69
2023-02-19T03:34:54.908Z,70.66
2023-02-19T03:37:35.290Z,70.42
2023-02-19T03:40:10.442Z,70.20
2023-02-19T03:42:56.161Z,70.20
2023-02-19T03:45:38.318Z,70.26
2023-02-19T03:48:24.515Z,70.15
2023-02-19T03:51:09.159Z,70.23
2023-02-19T03:53:54.524Z,70.31
2023-02-19T03:56:34.730Z,70.43
2023-02-19T03:59:15.227Z,70.38
2023-02-19T04:01:54.047Z,70.40
2023-02-19T04:04:32.918Z,70.45
2023-02-19T04:07:08.606Z,70.48
2023-02-19T04:09:47.211Z,70.64
2023-02-19T04:12:25.336Z,70.60
2023-02-19T04:15:05.373Z,70.68
2023-02-19T04:17:43.486Z,70.66
2023-02-19T04:20:18.995Z,70.59
2023-02-19T04:22:53.137Z,70.61
2023-02-19T04:25:28.472Z,70.57
2023-02-19T04:28:03.083Z,70.66
2023-02-19T04:30:36.818Z,70.68
2023-02-19T04:33:10.333Z,70.63
2023-02-19T04:35:44.013Z,70.74
2023-02-19T04:38:17.941Z,70.71
2023-02-19T04:40:52.793Z,70.76
2023-02-19T04:43:26.582Z,70.82
2023-02-19T04:46:03.481Z,70.89
2023-02-19T04:48:36.946Z,70.91
2023-02-19T04:51:12.022Z,70.98
2023-02-19T04:53:45.700Z,71.18
2023-02-19T04:56:20.526Z,71.25
2023-02-19T04:58:54.130Z,71.37
2023-02-19T05:01:28.010Z,71.17
2023-02-19T05:04:01.595Z,71.09
2023-02-19T05:06:35.328Z,71.13
2023-02-19T05:09:09.162Z,71.28
2023-02-19T05:11:42.979Z,71.38
2023-02-19T05:14:17.479Z,71.31
2023-02-19T05:16:51.107Z,71.36
2023-02-19T05:19:24.935Z,71.44
2023-02-19T05:21:58.459Z,71.45
2023-02-19T05:24:32.327Z,71.55
2023-02-19T05:27:05.850Z,71.53
2023-02-19T05:29:39.689Z,71.47
2023-02-19T05:32:13.806Z,71.55
2023-02-19T05:34:47.619Z,71.63
2023-02-19T05:37:21.045Z,71.70
2023-02-19T05:39:54.981Z,71.66
2023-02-19T05:42:28.380Z,71.62
2023-02-19T05:45:02.378Z,71.54
2023-02-19T05:47:35.942Z,71.47
2023-02-19T05:50:10.597Z,71.58
2023-02-19T05:52:44.833Z,71.63
2023-02-19T05:55:18.819Z,71.64
2023-02-19T05:57:52.681Z,71.60
2023-02-19T06:00:27.802Z,71.63
2023-02-19T06:03:01.522Z,71.60
2023-02-19T06:05:35.751Z,71.35
2023-02-19T06:08:09.587Z,71.27
2023-02-19T06:10:43.595Z,71.43
2023-02-19T06:13:17.902Z,71.30
2023-02-19T06:15:51.700Z,71.21
2023-02-19T06:18:25.230Z,71.22
2023-02-19T06:21:02.150Z,71.18
2023-02-19T06:23:36.279Z,71.22
2023-02-19T06:26:14.866Z,71.14
2023-02-19T06:28:50.185Z,71.12
2023-02-19T06:31:24.820Z,70.95
2023-02-19T06:33:58.501Z,70.85
2023-02-19T06:36:32.618Z,70.93
2023-02-19T06:39:06.924Z,70.91
2023-02-19T06:41:40.524Z,70.86
2023-02-19T06:44:13.921Z,70.88
2023-02-19T06:46:47.246Z,70.84
2023-02-19T06:49:21.016Z,70.81
2023-02-19T06:51:54.781Z,70.75
2023-02-19T06:54:29.252Z,70.75
2023-02-19T06:57:03.657Z,70.61
2023-02-19T06:59:37.282Z,70.47
2023-02-19T07:02:12.208Z,70.30
2023-02-19T07:04:45.926Z,70.47
2023-02-19T07:07:19.603Z,70.34
2023-02-19T07:09:53.235Z,70.23
2023-02-19T07:12:26.696Z,70.13
2023-02-19T07:15:00.355Z,70.14
2023-02-19T07:17:33.956Z,70.30
2023-02-19T07:20:08.363Z,70.12
2023-02-19T07:22:42.173Z,70.03
2023-02-19T07:25:15.651Z,69.91
2023-02-19T07:27:49.046Z,69.99
2023-02-19T07:30:23.222Z,69.89
2023-02-19T07:32:57.056Z,70.02
2023-02-19T07:35:51.626Z,69.97
2023-02-19T07:38:26.941Z,69.77
2023-02-19T07:41:02.301Z,69.81
2023-02-19T07:43:38.045Z,70.00
2023-02-19T07:46:14.822Z,70.17
2023-02-19T07:48:48.970Z,70.22
2023-02-19T07:51:23.710Z,69.91
2023-02-19T07:53:57.466Z,69.90
2023-02-19T07:56:31.156Z,69.76
2023-02-19T07:59:06.161Z,69.78
2023-02-19T08:01:57.308Z,69.64
2023-02-19T08:04:31.088Z,69.50
2023-02-19T08:07:05.772Z,69.32
2023-02-19T08:09:39.540Z,69.14
2023-02-19T08:12:32.542Z,69.22
2023-02-19T08:15:06.879Z,69.27
2023-02-19T08:17:40.583Z,69.17
2023-02-19T08:20:14.726Z,68.98
2023-02-19T08:22:48.650Z,68.99
2023-02-19T08:25:22.423Z,68.94
2023-02-19T08:27:56.400Z,69.04
2023-02-19T08:30:30.985Z,68.99
2023-02-19T08:33:06.972Z,69.16
2023-02-19T08:35:40.426Z,68.99
2023-02-19T08:38:16.660Z,68.76
2023-02-19T08:40:50.657Z,69.22
2023-02-19T08:43:24.365Z,69.39
2023-02-19T08:45:58.226Z,69.18
2023-02-19T08:48:32.021Z,68.56
2023-02-19T08:51:08.961Z,67.97
2023-02-19T08:53:44.022Z,67.32
2023-02-19T08:56:19.070Z,66.91
2023-02-19T08:58:52.797Z,66.57
2023-02-19T09:01:26.874Z,66.33
2023-02-19T09:04:00.725Z,66.21
2023-02-19T09:06:34.246Z,66.22
2023-02-19T09:09:08.368Z,66.12
2023-02-19T09:11:43.952Z,66.24
2023-02-19T09:14:17.364Z,66.05
2023-02-19T09:16:50.793Z,66.33
2023-02-19T09:19:24.525Z,66.59
2023-02-19T09:21:58.588Z,66.33
2023-02-19T09:24:32.438Z,66.25
2023-02-19T09:27:05.888Z,66.11
2023-02-19T09:29:39.528Z,66.42
2023-02-19T09:32:13.985Z,66.08
2023-02-19T09:34:48.262Z,66.18
2023-02-19T09:37:26.680Z,66.51
2023-02-19T09:39:59.198Z,66.27
2023-02-19T09:42:34.852Z,66.17
2023-02-19T09:45:10.240Z,66.20
2023-02-19T09:47:45.044Z,65.98
2023-02-19T09:50:23.869Z,65.61
2023-02-19T09:52:59.996Z,65.09
2023-02-19T09:55:39.088Z,64.99
2023-02-19T09:58:25.002Z,65.44
2023-02-19T10:01:00.585Z,65.62
2023-02-19T10:03:41.179Z,65.26
2023-02-19T10:06:22.903Z,64.78
2023-02-19T10:09:07.929Z,64.22
2023-02-19T10:11:42.110Z,63.96
2023-02-19T10:14:21.220Z,63.73
2023-02-19T10:16:56.993Z,63.87
2023-02-19T10:19:31.925Z,64.21
2023-02-19T10:22:06.754Z,63.37
2023-02-19T10:24:59.520Z,62.83
2023-02-19T10:27:34.212Z,62.44
2023-02-19T10:30:20.123Z,62.19
2023-02-19T10:33:06.047Z,61.74
2023-02-19T10:35:53.604Z,61.85
2023-02-19T10:38:31.954Z,60.78
2023-02-19T10:41:09.676Z,60.86
2023-02-19T10:43:46.282Z,61.06
2023-02-19T10:46:24.046Z,61.16
2023-02-19T10:49:01.195Z,61.80
2023-02-19T10:51:42.979Z,60.96
2023-02-19T10:54:23.527Z,60.23
2023-02-19T10:57:17.975Z,60.70
2023-02-19T10:59:58.741Z,61.89
2023-02-19T11:02:34.325Z,61.29
2023-02-19T11:05:22.247Z,59.80
2023-02-19T11:07:58.803Z,58.69
2023-02-19T11:10:44.462Z,58.42
2023-02-19T11:13:23.795Z,58.66
2023-02-19T11:16:00.066Z,58.25
2023-02-19T11:18:37.150Z,58.01
2023-02-19T11:21:25.168Z,57.68
2023-02-19T11:24:00.875Z,57.53
2023-02-19T11:26:38.581Z,57.80
2023-02-19T11:29:24.779Z,57.95
2023-02-19T11:32:07.049Z,57.86
2023-02-19T11:34:41.564Z,58.45
2023-02-19T11:37:18.623Z,57.24
2023-02-19T11:39:54.375Z,56.93
2023-02-19T11:42:51.112Z,56.83
2023-02-19T11:45:40.287Z,57.03
2023-02-19T11:48:38.718Z,57.92
2023-02-19T11:51:33.033Z,57.82
2023-02-19T11:54:18.794Z,58.00
2023-02-19T11:57:02.193Z,56.95
2023-02-19T11:59:44.154Z,56.36
2023-02-19T12:02:50.655Z,56.47
2023-02-19T12:05:37.462Z,56.65
2023-02-19T12:08:38.224Z,56.54
2023-02-19T12:11:32.405Z,55.88
2023-02-19T12:14:47.793Z,55.51
2023-02-19T12:17:45.304Z,54.54
2023-02-19T12:20:31.990Z,54.04
2023-02-19T12:23:32.083Z,53.91
2023-02-19T12:26:17.592Z,53.90
2023-02-19T12:29:22.181Z,54.83
2023-02-19T12:32:14.138Z,55.17
2023-02-19T12:35:14.346Z,55.35
2023-02-19T12:38:00.926Z,53.05
2023-02-19T12:40:49.868Z,51.84
2023-02-19T12:43:28.349Z,51.53
2023-02-19T12:46:06.649Z,51.44
2023-02-19T12:48:49.953Z,50.74
2023-02-19T12:51:29.315Z,51.11
2023-02-19T12:54:09.238Z,51.68
2023-02-19T12:56:49.546Z,52.22
2023-02-19T12:59:29.513Z,52.52
2023-02-19T13:02:12.812Z,52.77
2023-02-19T13:04:53.957Z,53.03
2023-02-19T13:07:35.129Z,53.12
2023-02-19T13:10:20.170Z,53.35
2023-02-19T13:12:57.030Z,53.76
2023-02-19T13:15:40.625Z,54.37
2023-02-19T13:18:23.566Z,54.58
2023-02-19T13:21:01.483Z,54.72
2023-02-19T13:23:58.631Z,54.41
2023-02-19T13:26:52.345Z,54.55
2023-02-19T13:29:41.633Z,54.98
2023-02-19T13:32:39.828Z,55.30
2023-02-19T13:35:41.640Z,55.36
2023-02-19T13:38:17.401Z,55.30
2023-02-19T13:41:05.745Z,55.21
2023-02-19T13:43:44.099Z,55.23
2023-02-19T13:46:20.069Z,56.26
2023-02-19T13:49:44.352Z,55.86
2023-02-19T13:52:42.708Z,55.52
2023-02-19T13:55:53.555Z,55.72
2023-02-19T13:59:02.749Z,55.89
2023-02-19T14:02:13.997Z,55.87
2023-02-19T14:04:54.933Z,56.17
2023-02-19T14:07:53.461Z,56.48
2023-02-19T14:11:05.514Z,56.74
2023-02-19T14:14:08.313Z,56.40
2023-02-19T14:17:05.467Z,56.03
2023-02-19T14:19:53.520Z,56.04
2023-02-19T14:22:44.796Z,56.04
2023-02-19T14:25:36.044Z,55.82
2023-02-19T14:28:19.255Z,55.55
2023-02-19T14:30:55.569Z,55.19
2023-02-19T14:33:35.792Z,55.13
2023-02-19T14:36:30.081Z,55.14
2023-02-19T14:39:08.295Z,55.13
2023-02-19T14:41:48.775Z,55.37
2023-02-19T14:44:27.659Z,55.22
2023-02-19T14:47:07.220Z,54.87
2023-02-19T14:49:48.389Z,54.58
2023-02-19T14:52:31.190Z,54.19
2023-02-19T14:55:11.946Z,53.85
2023-02-19T14:57:50.829Z,53.88
2023-02-19T15:00:32.711Z,53.46
2023-02-19T15:03:21.745Z,53.23
2023-02-19T15:06:08.352Z,53.39
2023-02-19T15:08:48.670Z,53.75
2023-02-19T15:11:28.374Z,53.63
2023-02-19T15:14:09.050Z,53.70
2023-02-19T15:16:44.929Z,53.57
2023-02-19T15:19:21.183Z,53.62
2023-02-19T15:21:56.556Z,53.50
2023-02-19T15:24:36.938Z,53.79
2023-02-19T15:27:24.432Z,53.88
2023-02-19T15:30:01.273Z,53.98
2023-02-19T15:32:37.634Z,53.91
2023-02-19T15:35:27.427Z,54.05
2023-02-19T15:38:05.451Z,54.22
2023-02-19T15:40:47.321Z,54.40
2023-02-19T15:43:29.271Z,54.38
2023-02-19T15:46:11.555Z,54.33
2023-02-19T15:48:59.509Z,54.30
2023-02-19T15:51:42.085Z,54.36
2023-02-19T15:54:27.245Z,54.46
2023-02-19T15:57:18.238Z,54.38
2023-02-19T15:59:59.212Z,54.38
2023-02-19T16:02:37.832Z,54.35
2023-02-19T16:05:27.256Z,54.44
2023-02-19T16:08:24.610Z,54.69
2023-02-19T16:11:02.448Z,54.79
2023-02-19T16:13:38.383Z,54.96
2023-02-19T16:16:27.553Z,55.13
2023-02-19T16:19:06.641Z,55.21
2023-02-19T16:21:48.997Z,55.36
2023-02-19T16:24:33.793Z,55.31
2023-02-19T16:27:11.322Z,55.19
2023-02-19T16:29:55.633Z,55.31
2023-02-19T16:32:32.036Z,55.53
2023-02-19T16:35:08.505Z,55.54
2023-02-19T16:38:00.038Z,55.67
2023-02-19T16:41:01.594Z,55.72
2023-02-19T16:43:44.431Z,55.84
2023-02-19T16:46:21.313Z,55.86
2023-02-19T16:48:57.638Z,55.74
2023-02-19T16:51:38.280Z,55.73
2023-02-19T16:54:15.741Z,55.85
2023-02-19T16:56:59.586Z,55.88
2023-02-19T16:59:38.874Z,55.90
2023-02-19T17:02:23.002Z,55.99
2023-02-19T17:04:59.845Z,55.94
2023-02-19T17:07:37.938Z,55.86
2023-02-19T17:10:24.934Z,55.90
2023-02-19T17:13:01.305Z,55.87
2023-02-19T17:15:37.296Z,55.67
2023-02-19T17:18:15.080Z,55.68
2023-02-19T17:20:57.880Z,55.48
2023-02-19T17:23:36.719Z,55.33
2023-02-19T17:26:16.903Z,55.32
2023-02-19T17:28:55.778Z,55.42
2023-02-19T17:31:32.546Z,55.39
2023-02-19T17:34:08.998Z,55.32
2023-02-19T17:36:46.632Z,55.34
2023-02-19T17:39:24.269Z,55.41
2023-02-19T17:41:58.687Z,55.44
2023-02-19T17:44:41.028Z,55.35
2023-02-19T17:47:20.563Z,55.37
2023-02-19T17:50:02.546Z,55.40
2023-02-19T17:52:38.395Z,55.39
2023-02-19T17:55:14.315Z,55.50
2023-02-19T17:57:56.878Z,55.65
2023-02-19T18:00:39.996Z,55.92
2023-02-19T18:03:19.638Z,56.28
2023-02-19T18:05:55.689Z,56.48
2023-02-19T18:08:32.224Z,56.68
2023-02-19T18:11:17.926Z,56.97
2023-02-19T18:13:54.059Z,57.08
2023-02-19T18:16:32.191Z,57.25
2023-02-19T18:19:13.844Z,57.41
2023-02-19T18:21:58.630Z,57.40
2023-02-19T18:24:34.429Z,57.45
2023-02-19T18:27:09.638Z,57.48
2023-02-19T18:29:48.546Z,57.48
2023-02-19T18:32:29.199Z,57.54
2023-02-19T18:35:13.000Z,57.53
2023-02-19T18:37:51.678Z,57.40
2023-02-19T18:40:29.892Z,57.37
2023-02-19T18:43:07.880Z,57.25
2023-02-19T18:45:46.370Z,57.34
2023-02-19T18:48:23.948Z,57.28
2023-02-19T18:51:02.061Z,57.19
2023-02-19T18:53:41.089Z,57.17
2023-02-19T18:56:18.314Z,57.00
2023-02-19T18:58:55.341Z,57.19
2023-02-19T19:01:32.119Z,57.15
2023-02-19T19:04:10.979Z,57.07
2023-02-19T19:06:50.167Z,56.09
2023-02-19T19:09:31.942Z,55.90
2023-02-19T19:12:09.011Z,55.99
2023-02-19T19:14:44.509Z,55.98
2023-02-19T19:17:25.422Z,56.13
2023-02-19T19:20:02.553Z,56.38
2023-02-19T19:22:42.825Z,56.57
2023-02-19T19:25:21.809Z,57.53
2023-02-19T19:28:01.953Z,58.20
2023-02-19T19:30:38.434Z,58.29
2023-02-19T19:33:24.206Z,58.27
2023-02-19T19:36:00.599Z,58.25
2023-02-19T19:38:37.937Z,58.26
2023-02-19T19:41:17.572Z,58.25
2023-02-19T19:43:59.085Z,58.33
2023-02-19T19:46:37.030Z,58.41
2023-02-19T19:49:14.675Z,58.27
2023-02-19T19:51:52.286Z,58.26
2023-02-19T19:54:29.399Z,58.19
2023-02-19T19:57:18.764Z,58.16
2023-02-19T20:00:01.048Z,58.13
2023-02-19T20:02:39.136Z,57.98
2023-02-19T20:05:25.032Z,57.96
2023-02-19T20:08:02.311Z,57.93
2023-02-19T20:10:40.563Z,57.79
2023-02-19T20:13:24.690Z,57.83
2023-02-19T20:16:03.739Z,57.81
2023-02-19T20:18:42.461Z,57.88
2023-02-19T20:21:22.676Z,57.92
2023-02-19T20:24:03.967Z,57.96
2023-02-19T20:26:46.917Z,57.89
2023-02-19T20:29:24.151Z,57.99
2023-02-19T20:32:03.442Z,57.96
2023-02-19T20:34:41.973Z,57.95
2023-02-19T20:37:20.183Z,57.85
2023-02-19T20:39:56.404Z,57.82
2023-02-19T20:42:37.362Z,57.89
2023-02-19T20:45:17.064Z,57.96
2023-02-19T20:47:56.829Z,57.88
2023-02-19T20:50:32.062Z,57.93
2023-02-19T20:53:09.057Z,57.95
2023-02-19T20:55:45.596Z,58.02
2023-02-19T20:58:22.916Z,57.84
2023-02-19T21:00:58.356Z,57.84
2023-02-19T21:03:34.433Z,58.01
2023-02-19T21:06:11.149Z,58.00
2023-02-19T21:08:47.935Z,58.14
2023-02-19T21:11:24.438Z,58.18
2023-02-19T21:14:08.062Z,58.19
2023-02-19T21:16:44.072Z,58.30
2023-02-19T21:19:26.201Z,58.36
2023-02-19T21:22:04.218Z,58.50
2023-02-19T21:24:39.936Z,58.55
2023-02-19T21:27:19.677Z,58.50
2023-02-19T21:29:55.463Z,58.55
2023-02-19T21:32:32.712Z,58.47
2023-02-19T21:35:10.067Z,58.49
2023-02-19T21:37:46.516Z,58.45
2023-02-19T21:40:23.771Z,58.57
2023-02-19T21:42:58.637Z,58.63
2023-02-19T21:45:32.891Z,58.70
2023-02-19T21:48:10.019Z,58.81
2023-02-19T21:50:46.249Z,58.84
2023-02-19T21:53:21.242Z,58.94
2023-02-19T21:55:58.799Z,58.89
2023-02-19T21:58:33.854Z,58.99
2023-02-19T22:01:07.945Z,59.08
2023-02-19T22:03:41.636Z,59.13
2023-02-19T22:06:15.657Z,59.27
2023-02-19T22:08:49.185Z,59.33
2023-02-19T22:11:23.010Z,59.29
2023-02-19T22:13:56.799Z,59.46
2023-02-19T22:16:30.841Z,59.56
2023-02-19T22:19:04.797Z,59.64
2023-02-19T22:21:37.983Z,59.73
2023-02-19T22:24:19.408Z,59.88
2023-02-19T22:26:57.174Z,59.92
2023-02-19T22:29:31.089Z,60.06
2023-02-19T22:32:05.029Z,60.14
2023-02-19T22:34:42.305Z,60.23
2023-02-19T22:37:16.054Z,60.41
2023-02-19T22:39:49.419Z,60.57
2023-02-19T22:42:24.511Z,60.84
2023-02-19T22:44:58.412Z,60.73
2023-02-19T22:47:32.108Z,60.80
2023-02-19T22:50:06.344Z,60.85
2023-02-19T22:52:39.785Z,60.83
2023-02-19T22:55:13.342Z,60.99
2023-02-19T22:57:47.099Z,61.14
2023-02-19T23:00:22.844Z,61.24
2023-02-19T23:02:56.453Z,61.32
2023-02-19T23:05:30.285Z,61.35
2023-02-19T23:08:03.971Z,61.41
2023-02-19T23:10:37.753Z,61.43
2023-02-19T23:13:11.529Z,61.35
2023-02-19T23:15:45.453Z,61.32
2023-02-19T23:18:19.122Z,61.27
2023-02-19T23:20:52.685Z,61.25
2023-02-19T23:23:26.535Z,61.23
2023-02-19T23:26:00.883Z,61.15
2023-02-19T23:28:34.922Z,61.24
2023-02-19T23:31:08.799Z,61.23
2023-02-19T23:33:44.048Z,61.26
2023-02-19T23:36:18.073Z,61.17
2023-02-19T23:38:51.953Z,61.27
2023-02-19T23:41:25.371Z,61.58
2023-02-19T23:43:58.801Z,62.10
2023-02-19T23:46:32.484Z,62.56
2023-02-19T23:49:06.013Z,62.91
2023-02-19T23:51:39.880Z,63.21
2023-02-19T23:54:13.518Z,63.35
2023-02-19T23:56:47.298Z,63.43
2023-02-19T23:59:21.256Z,63.59
